Terminal Aerodrome Forecast
Issued by NWS Buffalo, NY

Home | Current Version | Previous Version | Text Only | Print | Product List | Glossary On
Versions: 1 2 3 4 5 6 7 8 9 10 11 12 13 14 15 16 17 18 19 20 21 22 23
000
FTUS41 KBUF 211700
TAFBUF
TAF
KBUF 211720Z 2118/2218 24005KT P6SM SCT030
     FM211900 25005KT P6SM BKN025
     FM220300 13004KT P6SM OVC025
     FM221100 11005KT P6SM BKN035
     FM221500 14008KT P6SM SCT050=

USA.gov is the U.S. government's official web portal to all federal, state and local government web resources and services.